sensor_id;sensor_type;location;lat;lon;timestamp;P1;durP1;ratioP1;P2;durP2;ratioP2
12445;SDS011;6287;50.984;7.022;2024-01-11T00:01:59;19.73;;;9.30;;
12445;SDS011;6287;50.984;7.022;2024-01-11T00:04:27;18.57;;;9.17;;
12445;SDS011;6287;50.984;7.022;2024-01-11T00:06:53;15.77;;;9.10;;
12445;SDS011;6287;50.984;7.022;2024-01-11T00:09:18;17.50;;;9.53;;
12445;SDS011;6287;50.984;7.022;2024-01-11T00:11:44;17.50;;;8.57;;
12445;SDS011;6287;50.984;7.022;2024-01-11T00:14:15;17.80;;;9.20;;
12445;SDS011;6287;50.984;7.022;2024-01-11T00:16:41;16.47;;;8.57;;
12445;SDS011;6287;50.984;7.022;2024-01-11T00:19:06;19.20;;;8.83;;
12445;SDS011;6287;50.984;7.022;2024-01-11T00:21:33;19.77;;;8.73;;
12445;SDS011;6287;50.984;7.022;2024-01-11T00:23:59;17.27;;;8.83;;
12445;SDS011;6287;50.984;7.022;2024-01-11T00:26:27;13.30;;;7.97;;
12445;SDS011;6287;50.984;7.022;2024-01-11T00:28:52;15.90;;;8.17;;
12445;SDS011;6287;50.984;7.022;2024-01-11T00:31:18;18.67;;;9.50;;
12445;SDS011;6287;50.984;7.022;2024-01-11T00:33:47;14.87;;;8.60;;
12445;SDS011;6287;50.984;7.022;2024-01-11T00:36:19;17.90;;;9.40;;
12445;SDS011;6287;50.984;7.022;2024-01-11T00:38:45;16.47;;;9.70;;
12445;SDS011;6287;50.984;7.022;2024-01-11T00:41:11;19.30;;;8.23;;
12445;SDS011;6287;50.984;7.022;2024-01-11T00:43:40;19.00;;;9.37;;
12445;SDS011;6287;50.984;7.022;2024-01-11T00:46:06;17.63;;;9.47;;
12445;SDS011;6287;50.984;7.022;2024-01-11T00:48:31;22.97;;;9.60;;
12445;SDS011;6287;50.984;7.022;2024-01-11T00:50:57;18.47;;;8.57;;
12445;SDS011;6287;50.984;7.022;2024-01-11T00:53:23;14.60;;;8.57;;
12445;SDS011;6287;50.984;7.022;2024-01-11T00:55:49;16.17;;;8.43;;
12445;SDS011;6287;50.984;7.022;2024-01-11T00:58:16;13.40;;;8.77;;
12445;SDS011;6287;50.984;7.022;2024-01-11T01:00:44;14.13;;;7.53;;
12445;SDS011;6287;50.984;7.022;2024-01-11T01:03:09;16.87;;;8.83;;
12445;SDS011;6287;50.984;7.022;2024-01-11T01:05:35;18.87;;;9.43;;
12445;SDS011;6287;50.984;7.022;2024-01-11T01:08:00;14.20;;;8.83;;
12445;SDS011;6287;50.984;7.022;2024-01-11T01:10:29;19.70;;;9.67;;
12445;SDS011;6287;50.984;7.022;2024-01-11T01:12:54;19.03;;;9.17;;
12445;SDS011;6287;50.984;7.022;2024-01-11T01:15:23;17.70;;;9.77;;
12445;SDS011;6287;50.984;7.022;2024-01-11T01:17:48;12.97;;;8.30;;
12445;SDS011;6287;50.984;7.022;2024-01-11T01:20:14;16.20;;;8.63;;
12445;SDS011;6287;50.984;7.022;2024-01-11T01:22:42;17.37;;;9.20;;
12445;SDS011;6287;50.984;7.022;2024-01-11T01:25:12;17.07;;;9.20;;
12445;SDS011;6287;50.984;7.022;2024-01-11T01:27:38;17.73;;;8.87;;
12445;SDS011;6287;50.984;7.022;2024-01-11T01:30:04;17.27;;;9.13;;
12445;SDS011;6287;50.984;7.022;2024-01-11T01:32:31;17.17;;;9.93;;
12445;SDS011;6287;50.984;7.022;2024-01-11T01:34:57;18.53;;;9.27;;
12445;SDS011;6287;50.984;7.022;2024-01-11T01:37:23;18.63;;;8.97;;
12445;SDS011;6287;50.984;7.022;2024-01-11T01:39:50;21.73;;;9.97;;
12445;SDS011;6287;50.984;7.022;2024-01-11T01:42:16;19.97;;;9.07;;
12445;SDS011;6287;50.984;7.022;2024-01-11T01:44:42;21.80;;;9.80;;
12445;SDS011;6287;50.984;7.022;2024-01-11T01:47:08;20.50;;;10.33;;
12445;SDS011;6287;50.984;7.022;2024-01-11T01:49:35;25.83;;;11.37;;
12445;SDS011;6287;50.984;7.022;2024-01-11T01:52:02;22.53;;;11.03;;
12445;SDS011;6287;50.984;7.022;2024-01-11T01:54:31;27.70;;;13.43;;
12445;SDS011;6287;50.984;7.022;2024-01-11T01:56:59;27.97;;;13.13;;
12445;SDS011;6287;50.984;7.022;2024-01-11T01:59:26;29.23;;;13.67;;
12445;SDS011;6287;50.984;7.022;2024-01-11T02:01:54;25.37;;;12.77;;
12445;SDS011;6287;50.984;7.022;2024-01-11T02:04:22;26.87;;;12.73;;
12445;SDS011;6287;50.984;7.022;2024-01-11T02:06:48;25.83;;;13.63;;
12445;SDS011;6287;50.984;7.022;2024-01-11T02:09:16;20.10;;;11.23;;
12445;SDS011;6287;50.984;7.022;2024-01-11T02:11:45;23.07;;;11.87;;
12445;SDS011;6287;50.984;7.022;2024-01-11T02:14:14;22.37;;;11.17;;
12445;SDS011;6287;50.984;7.022;2024-01-11T02:16:41;25.03;;;12.10;;
12445;SDS011;6287;50.984;7.022;2024-01-11T02:19:07;23.90;;;12.20;;
12445;SDS011;6287;50.984;7.022;2024-01-11T02:21:37;19.13;;;10.33;;
12445;SDS011;6287;50.984;7.022;2024-01-11T02:24:03;24.03;;;10.77;;
12445;SDS011;6287;50.984;7.022;2024-01-11T02:26:32;18.50;;;10.23;;
12445;SDS011;6287;50.984;7.022;2024-01-11T02:28:58;25.07;;;11.17;;
12445;SDS011;6287;50.984;7.022;2024-01-11T02:31:26;20.77;;;11.43;;
12445;SDS011;6287;50.984;7.022;2024-01-11T02:33:52;21.17;;;10.63;;
12445;SDS011;6287;50.984;7.022;2024-01-11T02:36:19;22.07;;;11.40;;
12445;SDS011;6287;50.984;7.022;2024-01-11T02:38:48;18.93;;;11.40;;
12445;SDS011;6287;50.984;7.022;2024-01-11T02:41:17;19.53;;;10.70;;
12445;SDS011;6287;50.984;7.022;2024-01-11T02:43:49;17.97;;;9.40;;
12445;SDS011;6287;50.984;7.022;2024-01-11T02:46:16;16.83;;;10.20;;
12445;SDS011;6287;50.984;7.022;2024-01-11T02:48:42;19.30;;;10.20;;
12445;SDS011;6287;50.984;7.022;2024-01-11T02:51:10;19.97;;;11.00;;
12445;SDS011;6287;50.984;7.022;2024-01-11T02:53:38;22.50;;;10.53;;
12445;SDS011;6287;50.984;7.022;2024-01-11T02:56:08;21.80;;;10.60;;
12445;SDS011;6287;50.984;7.022;2024-01-11T02:58:35;15.73;;;8.77;;
12445;SDS011;6287;50.984;7.022;2024-01-11T03:01:04;18.77;;;9.17;;
12445;SDS011;6287;50.984;7.022;2024-01-11T03:03:30;20.37;;;10.10;;
12445;SDS011;6287;50.984;7.022;2024-01-11T03:05:55;18.37;;;9.60;;
12445;SDS011;6287;50.984;7.022;2024-01-11T03:08:23;23.60;;;10.43;;
12445;SDS011;6287;50.984;7.022;2024-01-11T03:10:51;24.90;;;10.87;;
12445;SDS011;6287;50.984;7.022;2024-01-11T03:13:16;17.53;;;9.43;;
12445;SDS011;6287;50.984;7.022;2024-01-11T03:15:42;19.57;;;10.40;;
12445;SDS011;6287;50.984;7.022;2024-01-11T03:18:09;16.77;;;9.63;;
12445;SDS011;6287;50.984;7.022;2024-01-11T03:20:35;15.63;;;8.90;;
12445;SDS011;6287;50.984;7.022;2024-01-11T03:23:05;17.83;;;9.03;;
12445;SDS011;6287;50.984;7.022;2024-01-11T03:25:31;19.83;;;10.00;;
12445;SDS011;6287;50.984;7.022;2024-01-11T03:28:00;19.77;;;9.73;;
12445;SDS011;6287;50.984;7.022;2024-01-11T03:30:25;18.63;;;9.80;;
12445;SDS011;6287;50.984;7.022;2024-01-11T03:32:51;20.07;;;9.83;;
12445;SDS011;6287;50.984;7.022;2024-01-11T03:35:17;21.43;;;11.27;;
12445;SDS011;6287;50.984;7.022;2024-01-11T03:37:45;19.07;;;9.80;;
12445;SDS011;6287;50.984;7.022;2024-01-11T03:40:14;18.90;;;9.37;;
12445;SDS011;6287;50.984;7.022;2024-01-11T03:42:42;16.87;;;9.97;;
12445;SDS011;6287;50.984;7.022;2024-01-11T03:45:08;17.30;;;9.20;;
12445;SDS011;6287;50.984;7.022;2024-01-11T03:47:34;21.30;;;10.13;;
12445;SDS011;6287;50.984;7.022;2024-01-11T03:50:00;14.33;;;8.57;;
12445;SDS011;6287;50.984;7.022;2024-01-11T03:52:27;19.23;;;9.10;;
12445;SDS011;6287;50.984;7.022;2024-01-11T03:54:52;16.93;;;7.67;;
12445;SDS011;6287;50.984;7.022;2024-01-11T03:57:20;14.40;;;7.90;;
12445;SDS011;6287;50.984;7.022;2024-01-11T03:59:51;19.70;;;9.33;;
12445;SDS011;6287;50.984;7.022;2024-01-11T04:02:17;17.13;;;8.77;;
12445;SDS011;6287;50.984;7.022;2024-01-11T04:04:45;15.70;;;9.13;;
12445;SDS011;6287;50.984;7.022;2024-01-11T04:07:13;20.07;;;9.47;;
12445;SDS011;6287;50.984;7.022;2024-01-11T04:09:39;18.43;;;9.37;;
12445;SDS011;6287;50.984;7.022;2024-01-11T04:12:05;22.03;;;9.87;;
12445;SDS011;6287;50.984;7.022;2024-01-11T04:14:37;16.43;;;8.70;;
12445;SDS011;6287;50.984;7.022;2024-01-11T04:17:03;15.17;;;9.20;;
12445;SDS011;6287;50.984;7.022;2024-01-11T04:19:32;19.40;;;9.30;;
12445;SDS011;6287;50.984;7.022;2024-01-11T04:21:58;18.23;;;9.03;;
12445;SDS011;6287;50.984;7.022;2024-01-11T04:24:24;19.67;;;9.87;;
12445;SDS011;6287;50.984;7.022;2024-01-11T04:26:52;21.57;;;9.87;;
12445;SDS011;6287;50.984;7.022;2024-01-11T04:29:21;22.23;;;9.80;;
12445;SDS011;6287;50.984;7.022;2024-01-11T04:31:47;20.50;;;9.73;;
12445;SDS011;6287;50.984;7.022;2024-01-11T04:34:12;17.63;;;9.00;;
12445;SDS011;6287;50.984;7.022;2024-01-11T04:36:38;18.23;;;10.23;;
12445;SDS011;6287;50.984;7.022;2024-01-11T04:39:04;21.00;;;10.37;;
12445;SDS011;6287;50.984;7.022;2024-01-11T04:41:31;20.57;;;9.63;;
12445;SDS011;6287;50.984;7.022;2024-01-11T04:43:57;18.50;;;9.33;;
12445;SDS011;6287;50.984;7.022;2024-01-11T04:46:27;21.77;;;9.07;;
12445;SDS011;6287;50.984;7.022;2024-01-11T04:48:55;16.47;;;8.70;;
12445;SDS011;6287;50.984;7.022;2024-01-11T04:51:23;20.83;;;9.67;;
12445;SDS011;6287;50.984;7.022;2024-01-11T04:53:51;12.23;;;8.70;;
12445;SDS011;6287;50.984;7.022;2024-01-11T04:56:19;17.03;;;8.90;;
12445;SDS011;6287;50.984;7.022;2024-01-11T04:58:47;18.73;;;8.90;;
12445;SDS011;6287;50.984;7.022;2024-01-11T05:01:13;18.13;;;7.67;;
12445;SDS011;6287;50.984;7.022;2024-01-11T05:03:40;19.57;;;10.33;;
12445;SDS011;6287;50.984;7.022;2024-01-11T05:06:07;13.77;;;8.93;;
12445;SDS011;6287;50.984;7.022;2024-01-11T05:08:33;16.90;;;8.57;;
12445;SDS011;6287;50.984;7.022;2024-01-11T05:10:59;16.07;;;9.07;;
12445;SDS011;6287;50.984;7.022;2024-01-11T05:13:28;14.47;;;8.70;;
12445;SDS011;6287;50.984;7.022;2024-01-11T05:15:54;17.77;;;9.57;;
12445;SDS011;6287;50.984;7.022;2024-01-11T05:18:20;13.80;;;8.80;;
12445;SDS011;6287;50.984;7.022;2024-01-11T05:20:51;16.50;;;8.93;;
12445;SDS011;6287;50.984;7.022;2024-01-11T05:23:17;19.27;;;10.03;;
12445;SDS011;6287;50.984;7.022;2024-01-11T05:25:45;20.10;;;9.10;;
12445;SDS011;6287;50.984;7.022;2024-01-11T05:28:13;14.40;;;9.27;;
12445;SDS011;6287;50.984;7.022;2024-01-11T05:30:38;13.90;;;8.17;;
12445;SDS011;6287;50.984;7.022;2024-01-11T05:33:04;16.90;;;9.27;;
12445;SDS011;6287;50.984;7.022;2024-01-11T05:35:30;15.37;;;9.10;;
12445;SDS011;6287;50.984;7.022;2024-01-11T05:37:57;19.13;;;9.30;;
12445;SDS011;6287;50.984;7.022;2024-01-11T05:40:23;15.63;;;8.67;;
12445;SDS011;6287;50.984;7.022;2024-01-11T05:42:49;16.93;;;8.33;;
12445;SDS011;6287;50.984;7.022;2024-01-11T05:45:15;19.20;;;9.13;;
12445;SDS011;6287;50.984;7.022;2024-01-11T05:47:44;23.67;;;10.73;;
12445;SDS011;6287;50.984;7.022;2024-01-11T05:50:12;18.97;;;9.80;;
12445;SDS011;6287;50.984;7.022;2024-01-11T05:52:37;15.17;;;8.23;;
12445;SDS011;6287;50.984;7.022;2024-01-11T05:55:03;19.07;;;9.23;;
12445;SDS011;6287;50.984;7.022;2024-01-11T05:57:30;15.20;;;8.80;;
12445;SDS011;6287;50.984;7.022;2024-01-11T06:00:00;18.37;;;9.80;;
12445;SDS011;6287;50.984;7.022;2024-01-11T06:02:28;23.73;;;10.10;;
12445;SDS011;6287;50.984;7.022;2024-01-11T06:04:56;17.83;;;8.43;;
12445;SDS011;6287;50.984;7.022;2024-01-11T06:07:22;18.17;;;8.73;;
12445;SDS011;6287;50.984;7.022;2024-01-11T06:09:48;17.60;;;9.43;;
12445;SDS011;6287;50.984;7.022;2024-01-11T06:12:16;18.03;;;8.93;;
12445;SDS011;6287;50.984;7.022;2024-01-11T06:14:44;21.47;;;9.70;;
12445;SDS011;6287;50.984;7.022;2024-01-11T06:17:10;22.47;;;8.23;;
12445;SDS011;6287;50.984;7.022;2024-01-11T06:19:37;18.00;;;8.90;;
12445;SDS011;6287;50.984;7.022;2024-01-11T06:22:05;19.57;;;8.87;;
12445;SDS011;6287;50.984;7.022;2024-01-11T06:24:33;16.57;;;9.53;;
12445;SDS011;6287;50.984;7.022;2024-01-11T06:26:59;17.27;;;9.47;;
12445;SDS011;6287;50.984;7.022;2024-01-11T06:29:29;17.07;;;8.93;;
12445;SDS011;6287;50.984;7.022;2024-01-11T06:31:54;14.90;;;8.30;;
12445;SDS011;6287;50.984;7.022;2024-01-11T06:34:20;18.47;;;9.53;;
12445;SDS011;6287;50.984;7.022;2024-01-11T06:36:45;18.63;;;10.03;;
12445;SDS011;6287;50.984;7.022;2024-01-11T06:39:13;18.33;;;9.50;;
12445;SDS011;6287;50.984;7.022;2024-01-11T06:41:39;17.17;;;7.97;;
12445;SDS011;6287;50.984;7.022;2024-01-11T06:44:05;15.93;;;9.00;;
12445;SDS011;6287;50.984;7.022;2024-01-11T06:46:30;17.03;;;9.73;;
12445;SDS011;6287;50.984;7.022;2024-01-11T06:48:59;17.37;;;8.27;;
12445;SDS011;6287;50.984;7.022;2024-01-11T06:51:27;20.27;;;9.80;;
12445;SDS011;6287;50.984;7.022;2024-01-11T06:53:56;14.73;;;8.43;;
12445;SDS011;6287;50.984;7.022;2024-01-11T06:56:24;21.37;;;10.80;;
12445;SDS011;6287;50.984;7.022;2024-01-11T06:58:51;15.17;;;9.67;;
12445;SDS011;6287;50.984;7.022;2024-01-11T07:01:17;21.10;;;11.03;;
12445;SDS011;6287;50.984;7.022;2024-01-11T07:03:42;15.07;;;7.97;;
12445;SDS011;6287;50.984;7.022;2024-01-11T07:06:08;19.30;;;9.70;;
12445;SDS011;6287;50.984;7.022;2024-01-11T07:08:34;18.50;;;9.27;;
12445;SDS011;6287;50.984;7.022;2024-01-11T07:11:03;21.77;;;9.03;;
12445;SDS011;6287;50.984;7.022;2024-01-11T07:13:32;19.30;;;9.73;;
12445;SDS011;6287;50.984;7.022;2024-01-11T07:16:01;14.93;;;9.57;;
12445;SDS011;6287;50.984;7.022;2024-01-11T07:18:28;26.55;;;15.70;;
12445;SDS011;6287;50.984;7.022;2024-01-11T07:20:55;24.23;;;12.07;;
12445;SDS011;6287;50.984;7.022;2024-01-11T07:23:22;17.27;;;9.60;;
12445;SDS011;6287;50.984;7.022;2024-01-11T07:25:51;22.73;;;10.37;;
12445;SDS011;6287;50.984;7.022;2024-01-11T07:28:19;18.90;;;9.87;;
12445;SDS011;6287;50.984;7.022;2024-01-11T07:30:50;14.17;;;9.03;;
12445;SDS011;6287;50.984;7.022;2024-01-11T07:33:17;30.67;;;17.17;;
12445;SDS011;6287;50.984;7.022;2024-01-11T07:35:43;22.07;;;11.90;;
12445;SDS011;6287;50.984;7.022;2024-01-11T07:38:10;19.87;;;9.73;;
12445;SDS011;6287;50.984;7.022;2024-01-11T07:40:36;16.03;;;9.77;;
12445;SDS011;6287;50.984;7.022;2024-01-11T07:43:01;18.23;;;9.63;;
12445;SDS011;6287;50.984;7.022;2024-01-11T07:45:29;19.17;;;10.37;;
12445;SDS011;6287;50.984;7.022;2024-01-11T07:47:55;16.37;;;8.40;;
12445;SDS011;6287;50.984;7.022;2024-01-11T07:50:21;17.03;;;8.70;;
12445;SDS011;6287;50.984;7.022;2024-01-11T07:52:49;19.00;;;9.77;;
12445;SDS011;6287;50.984;7.022;2024-01-11T07:55:15;15.70;;;9.23;;
12445;SDS011;6287;50.984;7.022;2024-01-11T07:57:41;16.67;;;8.87;;
12445;SDS011;6287;50.984;7.022;2024-01-11T08:00:09;22.40;;;10.97;;
12445;SDS011;6287;50.984;7.022;2024-01-11T08:02:38;18.10;;;9.50;;
12445;SDS011;6287;50.984;7.022;2024-01-11T08:05:05;16.30;;;8.43;;
12445;SDS011;6287;50.984;7.022;2024-01-11T08:07:32;19.50;;;8.80;;
12445;SDS011;6287;50.984;7.022;2024-01-11T08:09:57;23.07;;;10.57;;
12445;SDS011;6287;50.984;7.022;2024-01-11T08:12:28;20.03;;;8.63;;
12445;SDS011;6287;50.984;7.022;2024-01-11T08:14:54;17.93;;;9.70;;
12445;SDS011;6287;50.984;7.022;2024-01-11T08:17:21;18.00;;;9.50;;
12445;SDS011;6287;50.984;7.022;2024-01-11T08:19:49;21.40;;;10.70;;
12445;SDS011;6287;50.984;7.022;2024-01-11T08:24:51;22.23;;;10.50;;
12445;SDS011;6287;50.984;7.022;2024-01-11T08:27:17;21.60;;;9.73;;
12445;SDS011;6287;50.984;7.022;2024-01-11T08:29:43;24.67;;;11.60;;
12445;SDS011;6287;50.984;7.022;2024-01-11T08:32:11;23.33;;;11.07;;
12445;SDS011;6287;50.984;7.022;2024-01-11T08:34:37;24.53;;;11.70;;
12445;SDS011;6287;50.984;7.022;2024-01-11T08:37:05;21.83;;;10.40;;
12445;SDS011;6287;50.984;7.022;2024-01-11T08:39:30;23.20;;;11.17;;
12445;SDS011;6287;50.984;7.022;2024-01-11T08:41:56;25.73;;;12.73;;
12445;SDS011;6287;50.984;7.022;2024-01-11T08:44:24;22.30;;;11.60;;
12445;SDS011;6287;50.984;7.022;2024-01-11T08:46:55;29.43;;;10.97;;
12445;SDS011;6287;50.984;7.022;2024-01-11T08:49:22;21.27;;;12.50;;
12445;SDS011;6287;50.984;7.022;2024-01-11T08:51:48;23.57;;;12.60;;
12445;SDS011;6287;50.984;7.022;2024-01-11T08:56:41;23.80;;;11.90;;
12445;SDS011;6287;50.984;7.022;2024-01-11T08:59:07;24.60;;;12.60;;
12445;SDS011;6287;50.984;7.022;2024-01-11T09:01:35;20.20;;;11.97;;
12445;SDS011;6287;50.984;7.022;2024-01-11T09:04:04;29.50;;;11.80;;
12445;SDS011;6287;50.984;7.022;2024-01-11T09:06:31;27.67;;;12.30;;
12445;SDS011;6287;50.984;7.022;2024-01-11T09:09:01;20.03;;;12.40;;
12445;SDS011;6287;50.984;7.022;2024-01-11T09:11:37;25.47;;;11.80;;
12445;SDS011;6287;50.984;7.022;2024-01-11T09:14:02;23.93;;;10.93;;
12445;SDS011;6287;50.984;7.022;2024-01-11T09:16:36;26.10;;;12.33;;
12445;SDS011;6287;50.984;7.022;2024-01-11T09:19:01;24.27;;;12.20;;
12445;SDS011;6287;50.984;7.022;2024-01-11T09:21:30;28.30;;;12.50;;
12445;SDS011;6287;50.984;7.022;2024-01-11T09:26:33;23.00;;;12.40;;
12445;SDS011;6287;50.984;7.022;2024-01-11T09:34:12;22.63;;;11.33;;
12445;SDS011;6287;50.984;7.022;2024-01-11T09:36:38;24.93;;;12.43;;
12445;SDS011;6287;50.984;7.022;2024-01-11T09:39:05;23.07;;;12.53;;
12445;SDS011;6287;50.984;7.022;2024-01-11T09:41:34;24.37;;;12.20;;
12445;SDS011;6287;50.984;7.022;2024-01-11T09:44:06;29.20;;;12.87;;
12445;SDS011;6287;50.984;7.022;2024-01-11T09:46:32;21.80;;;12.07;;
12445;SDS011;6287;50.984;7.022;2024-01-11T09:49:00;24.53;;;12.80;;
12445;SDS011;6287;50.984;7.022;2024-01-11T09:51:30;26.13;;;13.23;;
12445;SDS011;6287;50.984;7.022;2024-01-11T09:54:02;22.63;;;11.77;;
12445;SDS011;6287;50.984;7.022;2024-01-11T09:56:28;26.33;;;12.60;;
12445;SDS011;6287;50.984;7.022;2024-01-11T09:58:54;25.90;;;13.00;;
12445;SDS011;6287;50.984;7.022;2024-01-11T10:01:24;23.90;;;12.83;;
12445;SDS011;6287;50.984;7.022;2024-01-11T10:03:52;24.80;;;12.70;;
12445;SDS011;6287;50.984;7.022;2024-01-11T10:06:22;23.10;;;12.07;;
12445;SDS011;6287;50.984;7.022;2024-01-11T10:08:51;24.57;;;13.03;;
12445;SDS011;6287;50.984;7.022;2024-01-11T10:11:17;25.23;;;11.93;;
12445;SDS011;6287;50.984;7.022;2024-01-11T10:13:43;24.80;;;13.37;;
12445;SDS011;6287;50.984;7.022;2024-01-11T10:16:14;23.97;;;13.00;;
12445;SDS011;6287;50.984;7.022;2024-01-11T10:18:42;25.20;;;14.17;;
12445;SDS011;6287;50.984;7.022;2024-01-11T10:21:08;28.87;;;13.13;;
12445;SDS011;6287;50.984;7.022;2024-01-11T10:23:36;26.83;;;13.03;;
12445;SDS011;6287;50.984;7.022;2024-01-11T10:26:04;28.33;;;14.47;;
12445;SDS011;6287;50.984;7.022;2024-01-11T10:28:32;26.37;;;14.37;;
12445;SDS011;6287;50.984;7.022;2024-01-11T10:31:02;27.83;;;13.97;;
12445;SDS011;6287;50.984;7.022;2024-01-11T10:33:34;24.80;;;13.47;;
12445;SDS011;6287;50.984;7.022;2024-01-11T10:36:05;28.87;;;14.90;;
12445;SDS011;6287;50.984;7.022;2024-01-11T10:38:35;27.87;;;14.30;;
12445;SDS011;6287;50.984;7.022;2024-01-11T10:41:04;30.13;;;15.03;;
12445;SDS011;6287;50.984;7.022;2024-01-11T10:43:31;27.27;;;14.40;;
12445;SDS011;6287;50.984;7.022;2024-01-11T10:46:02;23.43;;;13.97;;
12445;SDS011;6287;50.984;7.022;2024-01-11T10:48:31;25.93;;;14.97;;
12445;SDS011;6287;50.984;7.022;2024-01-11T10:51:05;25.93;;;14.77;;
12445;SDS011;6287;50.984;7.022;2024-01-11T10:53:45;28.80;;;14.60;;
12445;SDS011;6287;50.984;7.022;2024-01-11T10:56:12;25.37;;;13.47;;
12445;SDS011;6287;50.984;7.022;2024-01-11T10:58:41;26.87;;;15.27;;
12445;SDS011;6287;50.984;7.022;2024-01-11T11:01:10;27.87;;;15.13;;
12445;SDS011;6287;50.984;7.022;2024-01-11T11:03:43;28.97;;;15.03;;
12445;SDS011;6287;50.984;7.022;2024-01-11T11:06:16;28.27;;;14.70;;
12445;SDS011;6287;50.984;7.022;2024-01-11T11:08:44;28.67;;;15.00;;
12445;SDS011;6287;50.984;7.022;2024-01-11T11:11:14;33.07;;;16.07;;
12445;SDS011;6287;50.984;7.022;2024-01-11T11:13:46;28.37;;;15.63;;
12445;SDS011;6287;50.984;7.022;2024-01-11T11:16:14;29.57;;;14.53;;
12445;SDS011;6287;50.984;7.022;2024-01-11T11:18:42;30.57;;;15.10;;
12445;SDS011;6287;50.984;7.022;2024-01-11T11:21:11;28.97;;;16.10;;
12445;SDS011;6287;50.984;7.022;2024-01-11T11:23:42;26.60;;;15.20;;
12445;SDS011;6287;50.984;7.022;2024-01-11T11:26:07;29.30;;;15.47;;
12445;SDS011;6287;50.984;7.022;2024-01-11T11:28:41;30.20;;;15.73;;
12445;SDS011;6287;50.984;7.022;2024-01-11T11:31:07;30.73;;;17.13;;
12445;SDS011;6287;50.984;7.022;2024-01-11T11:33:37;32.00;;;16.50;;
12445;SDS011;6287;50.984;7.022;2024-01-11T11:36:05;27.97;;;15.40;;
12445;SDS011;6287;50.984;7.022;2024-01-11T11:38:36;27.80;;;15.80;;
12445;SDS011;6287;50.984;7.022;2024-01-11T11:41:03;28.37;;;15.97;;
12445;SDS011;6287;50.984;7.022;2024-01-11T11:43:31;29.57;;;16.40;;
12445;SDS011;6287;50.984;7.022;2024-01-11T11:45:57;29.83;;;16.97;;
12445;SDS011;6287;50.984;7.022;2024-01-11T11:53:38;28.80;;;18.17;;
12445;SDS011;6287;50.984;7.022;2024-01-11T11:56:05;33.43;;;17.53;;
12445;SDS011;6287;50.984;7.022;2024-01-11T11:58:38;33.77;;;17.90;;
12445;SDS011;6287;50.984;7.022;2024-01-11T12:01:06;29.27;;;16.47;;
12445;SDS011;6287;50.984;7.022;2024-01-11T12:03:34;32.03;;;17.13;;
12445;SDS011;6287;50.984;7.022;2024-01-11T12:06:05;33.03;;;18.80;;
12445;SDS011;6287;50.984;7.022;2024-01-11T12:08:31;31.77;;;17.43;;
12445;SDS011;6287;50.984;7.022;2024-01-11T12:11:00;33.63;;;19.95;;
12445;SDS011;6287;50.984;7.022;2024-01-11T12:13:30;31.53;;;18.53;;
12445;SDS011;6287;50.984;7.022;2024-01-11T12:15:57;29.53;;;18.07;;
12445;SDS011;6287;50.984;7.022;2024-01-11T12:18:24;30.17;;;17.33;;
12445;SDS011;6287;50.984;7.022;2024-01-11T12:20:52;27.67;;;16.97;;
12445;SDS011;6287;50.984;7.022;2024-01-11T12:23:20;29.20;;;17.43;;
12445;SDS011;6287;50.984;7.022;2024-01-11T12:25:47;31.23;;;16.83;;
12445;SDS011;6287;50.984;7.022;2024-01-11T12:28:12;29.47;;;16.47;;
12445;SDS011;6287;50.984;7.022;2024-01-11T12:30:43;29.50;;;16.50;;
12445;SDS011;6287;50.984;7.022;2024-01-11T12:33:10;27.97;;;17.17;;
12445;SDS011;6287;50.984;7.022;2024-01-11T12:35:36;26.40;;;15.43;;
12445;SDS011;6287;50.984;7.022;2024-01-11T12:38:05;27.20;;;15.63;;
12445;SDS011;6287;50.984;7.022;2024-01-11T12:40:31;28.97;;;15.20;;
12445;SDS011;6287;50.984;7.022;2024-01-11T12:42:59;30.53;;;16.13;;
12445;SDS011;6287;50.984;7.022;2024-01-11T12:45:25;28.47;;;16.23;;
12445;SDS011;6287;50.984;7.022;2024-01-11T12:47:51;26.43;;;15.23;;
12445;SDS011;6287;50.984;7.022;2024-01-11T12:50:17;24.57;;;14.30;;
12445;SDS011;6287;50.984;7.022;2024-01-11T12:52:45;29.70;;;16.17;;
12445;SDS011;6287;50.984;7.022;2024-01-11T12:55:18;27.97;;;15.57;;
12445;SDS011;6287;50.984;7.022;2024-01-11T12:57:47;23.23;;;14.57;;
12445;SDS011;6287;50.984;7.022;2024-01-11T13:00:15;28.27;;;15.07;;
12445;SDS011;6287;50.984;7.022;2024-01-11T13:02:43;28.33;;;15.83;;
12445;SDS011;6287;50.984;7.022;2024-01-11T13:05:13;28.07;;;14.50;;
12445;SDS011;6287;50.984;7.022;2024-01-11T13:07:43;26.43;;;15.13;;
12445;SDS011;6287;50.984;7.022;2024-01-11T13:10:11;27.47;;;16.03;;
12445;SDS011;6287;50.984;7.022;2024-01-11T13:12:36;24.07;;;15.43;;
12445;SDS011;6287;50.984;7.022;2024-01-11T13:15:04;26.70;;;15.90;;
12445;SDS011;6287;50.984;7.022;2024-01-11T13:17:30;25.73;;;15.07;;
12445;SDS011;6287;50.984;7.022;2024-01-11T13:19:56;28.13;;;15.40;;
12445;SDS011;6287;50.984;7.022;2024-01-11T13:22:26;32.60;;;16.90;;
12445;SDS011;6287;50.984;7.022;2024-01-11T13:24:53;29.43;;;16.27;;
12445;SDS011;6287;50.984;7.022;2024-01-11T13:27:18;33.63;;;16.63;;
12445;SDS011;6287;50.984;7.022;2024-01-11T13:29:44;29.17;;;16.00;;
12445;SDS011;6287;50.984;7.022;2024-01-11T13:32:09;29.77;;;16.63;;
12445;SDS011;6287;50.984;7.022;2024-01-11T13:34:35;26.10;;;14.57;;
12445;SDS011;6287;50.984;7.022;2024-01-11T13:37:04;24.97;;;16.07;;
12445;SDS011;6287;50.984;7.022;2024-01-11T13:39:30;30.50;;;17.10;;
12445;SDS011;6287;50.984;7.022;2024-01-11T13:41:58;35.23;;;17.40;;
12445;SDS011;6287;50.984;7.022;2024-01-11T13:44:28;33.17;;;17.60;;
12445;SDS011;6287;50.984;7.022;2024-01-11T13:46:54;36.10;;;16.87;;
12445;SDS011;6287;50.984;7.022;2024-01-11T13:49:20;31.93;;;16.73;;
12445;SDS011;6287;50.984;7.022;2024-01-11T13:51:52;30.97;;;16.50;;
12445;SDS011;6287;50.984;7.022;2024-01-11T13:54:19;34.80;;;17.63;;
12445;SDS011;6287;50.984;7.022;2024-01-11T13:56:49;36.13;;;17.73;;
12445;SDS011;6287;50.984;7.022;2024-01-11T13:59:20;30.13;;;16.27;;
12445;SDS011;6287;50.984;7.022;2024-01-11T14:01:51;31.97;;;17.40;;
12445;SDS011;6287;50.984;7.022;2024-01-11T14:04:19;29.90;;;17.67;;
12445;SDS011;6287;50.984;7.022;2024-01-11T14:06:48;33.57;;;17.33;;
12445;SDS011;6287;50.984;7.022;2024-01-11T14:09:17;28.13;;;16.80;;
12445;SDS011;6287;50.984;7.022;2024-01-11T14:11:44;32.90;;;16.43;;
12445;SDS011;6287;50.984;7.022;2024-01-11T14:14:13;30.27;;;15.77;;
12445;SDS011;6287;50.984;7.022;2024-01-11T14:16:39;28.70;;;15.20;;
12445;SDS011;6287;50.984;7.022;2024-01-11T14:19:04;30.97;;;16.63;;
12445;SDS011;6287;50.984;7.022;2024-01-11T14:21:32;31.17;;;16.43;;
12445;SDS011;6287;50.984;7.022;2024-01-11T14:24:00;27.37;;;15.07;;
12445;SDS011;6287;50.984;7.022;2024-01-11T14:26:28;28.30;;;14.93;;
12445;SDS011;6287;50.984;7.022;2024-01-11T14:28:54;26.00;;;14.23;;
12445;SDS011;6287;50.984;7.022;2024-01-11T14:31:19;28.53;;;14.20;;
12445;SDS011;6287;50.984;7.022;2024-01-11T14:33:47;30.43;;;14.17;;
12445;SDS011;6287;50.984;7.022;2024-01-11T14:36:13;32.20;;;15.70;;
12445;SDS011;6287;50.984;7.022;2024-01-11T14:38:39;31.17;;;14.37;;
12445;SDS011;6287;50.984;7.022;2024-01-11T14:41:05;29.47;;;14.63;;
12445;SDS011;6287;50.984;7.022;2024-01-11T14:43:31;23.47;;;13.10;;
12445;SDS011;6287;50.984;7.022;2024-01-11T14:46:01;26.53;;;14.73;;
12445;SDS011;6287;50.984;7.022;2024-01-11T14:48:29;30.93;;;15.33;;
12445;SDS011;6287;50.984;7.022;2024-01-11T14:50:58;26.37;;;14.10;;
12445;SDS011;6287;50.984;7.022;2024-01-11T14:53:29;34.90;;;15.30;;
12445;SDS011;6287;50.984;7.022;2024-01-11T14:55:55;32.83;;;14.57;;
12445;SDS011;6287;50.984;7.022;2024-01-11T14:58:23;24.03;;;13.83;;
12445;SDS011;6287;50.984;7.022;2024-01-11T15:00:51;23.97;;;13.53;;